Latest Weather Observations for Gudgenby

IDN60801

Issued at 2:33 pm EST Thursday 25 April 2024 (issued every 10 minutes, with the page automatically refreshed every 10 minutes)

About weather observations | Map of weather stations | Latest weather observations for NSW | Other Formats
Station Details ID: 250072 Name: AFSD - GUDGENBY Lat: -35.73 Lon: 148.98 Height: 1035.0 m

Portable automatic weather stations (PAWS) are operated by other organisations, such as Fire and Emergency Services, and are included here by agreement. Portable stations may be deployed to a location for a short period and their location may be subject to change without notice. Wind observations from these stations are provided from heights of either three (3) or ten (10) metres above ground level (AGL).

Data from the previous 72 hours. | See also: Recent months for locations in New South Wales
Date/Time
EST
Temp
°C
App
Temp
°C
Dew
Point
°C
Rel
Hum
%
Delta-T
°C
Wind Press
QNH
hPa
Press
MSL
hPa
Rain since
9am
mm
Dir  Spd
km/h
Gust
km/h
Spd
kts
Gust
kts
25/02:00pm 14.8 9.8 1.5 40 6.1 W 17 19 9 10 1018.4 - 0.0
25/01:30pm 15.3 11.6 -0.2 34 6.9 WNW 9 13 5 7 1018.3 - 0.0
25/01:00pm 15.1 11.5 -2.4 30 7.5 N 7 11 4 6 1018.4 - 0.0
25/12:30pm 14.5 9.9 -1.2 34 6.8 NNE 13 17 7 9 1018.8 - 0.0
25/12:00pm 13.8 9.0 -2.7 32 6.9 NE 13 19 7 10 1019.4 - 0.0
25/11:30am 13.3 8.0 -3.8 30 7.0 ENE 15 20 8 11 1019.7 - 0.0
25/11:00am 12.8 7.0 -4.2 30 6.8 NE 17 24 9 13 1020.0 - 0.0
25/10:30am 12.1 6.3 -5.0 30 6.7 ENE 17 24 9 13 1020.2 - 0.0
25/10:00am 11.4 8.1 0.3 46 4.9 NNE 7 11 4 6 1020.4 - 0.0
25/09:30am 9.4 7.7 1.6 58 3.5 CALM 0 2 0 1 1020.6 - 0.0
25/09:00am 7.4 5.4 2.5 71 2.2 W 2 6 1 3 1020.7 - 0.0
25/08:30am 4.6 2.8 1.0 77 1.5 CALM 0 2 0 1 1020.7 - 0.0
25/08:00am 2.2 -0.2 0.0 85 0.9 ESE 2 4 1 2 1020.5 - 0.0
25/07:30am 0.4 -2.6 -1.7 86 0.8 NE 4 6 2 3 1020.2 - 0.0
25/07:00am -1.0 -4.5 -2.7 88 0.6 NE 6 7 3 4 1020.0 - 0.0
25/06:30am -0.5 -3.2 -2.3 88 0.6 NE 2 4 1 2 1019.7 - 0.0
25/06:00am -1.3 -3.6 -2.6 91 0.4 CALM 0 2 0 1 1019.7 - 0.0
25/05:30am -0.8 -3.8 -2.1 91 0.4 NE 4 6 2 3 1019.6 - 0.0
25/05:00am -1.0 -3.7 -2.5 89 0.5 NW 2 2 1 1 1019.4 - 0.0
25/04:30am 0.1 -2.9 -2.0 86 0.8 ENE 4 6 2 3 1019.4 - 0.0
25/04:00am 0.7 -1.9 -1.5 85 0.9 NNE 2 4 1 2 1019.2 - 0.0
25/03:30am 0.5 -2.1 -1.7 85 0.8 SW 2 6 1 3 1019.3 - 0.0
25/03:00am 1.0 -2.0 -1.5 83 0.9 SW 4 4 2 2 1019.4 - 0.0
25/02:30am 2.0 -0.6 -1.4 78 1.3 WNW 2 2 1 1 1019.7 - 0.0
25/02:00am 2.3 -0.6 -1.2 78 1.3 W 4 6 2 3 1019.7 - 0.0
25/01:30am 1.4 -1.1 -1.2 83 1.0 SSE 2 4 1 2 1020.0 - 0.0
25/01:00am 2.0 -0.9 -1.2 79 1.2 WSW 4 4 2 2 1020.3 - 0.0
25/12:30am 1.8 -0.7 -1.2 80 1.1 SSE 2 6 1 3 1020.3 - 0.0
25/12:00am 2.6 0.1 -1.2 76 1.5 SSE 2 2 1 1 1020.2 - 0.0
 
Date/Time
EST
Temp
°C
App
Temp
°C
Dew
Point
°C
Rel
Hum
%
Delta-T
°C
Wind Press
QNH
hPa
Press
MSL
hPa
Rain since
9am
mm
Dir  Spd
km/h
Gust
km/h
Spd
kts
Gust
kts
24/11:30pm 2.9 0.4 -1.1 75 1.6 SSW 2 4 1 2 1020.3 - 0.0
24/11:00pm 3.2 0.7 -1.1 73 1.7 W 2 4 1 2 1020.5 - 0.0
24/10:30pm 4.1 1.6 -1.3 68 2.1 N 2 4 1 2 1020.6 - 0.0
24/10:00pm 4.2 2.0 -1.3 67 2.2 CALM 0 2 0 1 1020.6 - 0.0
24/09:30pm 5.1 0.8 -1.4 63 2.6 NE 11 13 6 7 1020.4 - 0.0
24/09:00pm 5.8 1.2 -1.0 61 2.7 ENE 13 15 7 8 1020.1 - 0.0
24/08:30pm 6.0 1.0 -0.9 61 2.8 ENE 15 15 8 8 1019.7 - 0.0
24/08:00pm 6.0 2.8 -0.3 64 2.6 NNW 6 11 3 6 1019.7 - 0.0
24/07:30pm 6.9 2.0 -0.2 60 2.9 NE 15 19 8 10 1019.5 - 0.0
24/07:00pm 7.8 3.8 0.2 58 3.2 ENE 11 13 6 7 1019.5 - 0.0
24/06:30pm 9.0 5.3 0.0 53 3.8 NE 9 11 5 6 1019.1 - 0.0
24/06:00pm 9.4 4.6 0.1 52 4.0 ENE 15 17 8 9 1018.4 - 0.0
24/05:30pm 10.0 5.2 0.1 50 4.3 ENE 15 15 8 8 1017.8 - 0.0
24/05:00pm 10.6 7.0 0.6 50 4.4 NNE 9 11 5 6 1017.5 - 0.0
24/04:30pm 11.6 6.1 0.7 47 4.8 N 19 22 10 12 1017.1 - 0.0
24/04:00pm 13.2 6.7 0.1 40 5.8 NNE 24 26 13 14 1016.8 - 0.0
24/03:30pm 14.1 8.1 1.3 41 5.9 N 22 30 12 16 1016.2 - 0.0
24/03:00pm 15.6 10.5 0.9 37 6.8 NNE 17 20 9 11 1016.2 - 0.0
24/02:30pm 15.3 9.2 0.6 36 6.7 NE 22 28 12 15 1015.9 - 0.0
24/02:00pm 15.6 10.2 1.5 38 6.6 ENE 19 26 10 14 1015.8 - 0.0
24/01:30pm 15.9 10.1 2.4 40 6.4 NE 22 30 12 16 1015.3 - 0.0
24/01:00pm 16.4 11.4 -4.6 23 8.7 E 13 17 7 9 1015.3 - 0.0
24/12:30pm 15.7 9.5 -8.8 17 9.2 ENE 17 24 9 13 1015.5 - 0.0
24/12:00pm 16.0 8.5 -8.9 17 9.3 SE 24 35 13 19 1015.9 - 0.0
24/11:30am 15.6 8.8 -4.9 24 8.3 ENE 22 28 12 15 1016.1 - 0.0
24/11:00am 15.2 8.9 -4.2 26 8.0 E 20 30 11 16 1016.3 - 0.0
24/10:30am 13.8 7.8 -2.8 31 6.9 E 19 26 10 14 1016.4 - 0.0
24/10:00am 13.2 8.1 -1.7 35 6.3 E 15 20 8 11 1016.4 - 0.0
24/09:30am 13.4 8.8 -0.9 37 6.2 E 13 19 7 10 1016.2 - 0.0
24/09:00am 13.0 7.3 -0.5 39 5.9 E 19 26 10 14 1016.2 - 0.0
24/08:30am 11.7 8.3 1.8 50 4.5 SSE 9 13 5 7 1015.7 - 0.0
24/08:00am 12.0 5.7 3.5 56 4.0 SE 26 30 14 16 1015.7 - 0.0
24/07:30am 11.8 8.4 4.0 59 3.7 SE 11 19 6 10 1015.6 - 0.0
24/07:00am 12.2 5.4 4.9 61 3.6 SE 30 39 16 21 1015.0 - 0.0
24/06:30am 13.1 9.4 4.3 55 4.3 SE 13 22 7 12 1014.3 - 0.0
24/06:00am 13.6 7.9 4.7 55 4.4 SSE 24 33 13 18 1013.8 - 0.0
24/05:30am 13.8 9.3 4.3 52 4.6 S 17 30 9 16 1013.9 - 0.0
24/05:00am 14.2 7.2 4.2 51 4.9 S 30 43 16 23 1013.6 - 0.0
24/04:30am 14.2 8.6 3.7 49 5.1 S 22 37 12 20 1013.4 - 0.0
24/04:00am 13.6 6.9 3.8 51 4.7 SSW 28 32 15 17 1013.0 - 0.0
24/03:30am 13.5 6.6 4.5 54 4.4 S 30 35 16 19 1013.9 - 0.0
24/03:00am 13.0 6.9 4.8 57 4.0 S 26 32 14 17 1014.3 - 0.0
24/02:30am 12.8 8.3 4.1 55 4.2 SSW 17 24 9 13 1015.1 - 0.0
24/02:00am 13.4 7.5 4.0 53 4.5 S 24 35 13 19 1015.7 - 0.0
24/01:30am 13.2 9.1 4.1 54 4.4 SW 15 19 8 10 1016.5 - 0.0
24/01:00am 12.7 7.9 4.4 57 4.0 SW 19 20 10 11 1016.6 - 0.0
24/12:30am 12.1 9.3 5.1 62 3.4 SSW 9 11 5 6 1017.1 - 0.0
24/12:00am 12.3 9.5 5.3 62 3.4 SSW 9 17 5 9 1017.5 - 0.0
 
Date/Time
EST
Temp
°C
App
Temp
°C
Dew
Point
°C
Rel
Hum
%
Delta-T
°C
Wind Press
QNH
hPa
Press
MSL
hPa
Rain since
9am
mm
Dir  Spd
km/h
Gust
km/h
Spd
kts
Gust
kts
23/11:30pm 11.5 7.6 5.4 66 3.0 SW 15 17 8 9 1017.6 - 0.0
23/11:00pm 11.8 9.7 6.0 67 2.9 W 6 7 3 4 1018.3 - 0.0
23/10:30pm 10.6 9.0 6.3 75 2.1 SW 4 6 2 3 1018.8 - 0.0
23/10:00pm 9.5 7.8 5.7 77 1.8 W 4 7 2 4 1019.1 - 0.0
23/09:30pm 10.5 8.3 6.3 75 2.1 WSW 7 7 4 4 1019.6 - 0.0
23/09:00pm 11.0 8.8 6.2 72 2.4 SW 7 7 4 4 1019.8 - 0.0
23/08:30pm 11.1 9.5 6.3 72 2.4 WSW 4 6 2 3 1019.8 - 0.0
23/08:00pm 11.8 9.9 6.6 70 2.6 SSW 6 7 3 4 1020.0 - 0.0
23/07:30pm 12.8 10.7 6.5 65 3.2 S 7 11 4 6 1020.2 - 0.0
23/07:00pm 12.9 9.6 6.6 65 3.2 S 13 15 7 8 1020.1 - 0.0
23/06:30pm 13.4 9.3 6.3 62 3.6 S 17 20 9 11 1019.9 - 0.0
23/06:00pm 14.1 12.3 5.4 56 4.3 E 4 9 2 5 1019.7 - 0.0
23/05:30pm 15.1 13.4 6.1 55 4.6 WNW 4 4 2 2 1019.1 - 0.0
23/05:00pm 16.7 15.3 5.5 47 5.7 NE 2 4 1 2 1019.1 - 0.0
23/04:30pm 18.5 17.2 5.8 43 6.6 NNE 2 6 1 3 1019.1 - 0.0
23/04:00pm 18.5 14.8 8.1 50 5.6 W 17 22 9 12 1019.2 - 0.0
23/03:30pm 18.8 14.5 7.9 49 5.9 W 20 22 11 12 1019.4 - 0.0
23/03:00pm 19.1 15.0 8.7 51 5.7 W 20 22 11 12 1019.7 - 0.0
23/02:30pm 18.5 14.1 9.1 54 5.2 W 22 24 12 13 1019.9 - 0.0
23/02:00pm 19.2 15.4 8.9 51 5.7 W 19 22 10 12 1020.2 - 0.0
23/01:30pm 19.3 15.2 8.5 49 5.9 W 20 22 11 12 1020.6 - 0.0
23/01:00pm 18.6 14.6 8.3 51 5.6 WNW 19 22 10 12 1021.2 - 0.0
23/12:30pm 18.0 13.8 7.6 50 5.6 W 19 20 10 11 1021.9 - 0.0
23/12:00pm 18.2 14.8 7.5 49 5.7 WNW 15 19 8 10 1022.5 - 0.0
23/11:30am 18.0 14.4 6.9 48 5.9 WNW 15 19 8 10 1023.2 - 0.0
23/11:00am 17.0 13.0 6.5 50 5.5 WNW 17 20 9 11 1023.8 - 0.0
23/10:30am 17.2 13.9 6.3 48 5.7 WNW 13 17 7 9 1024.0 - 0.0
23/10:00am 16.1 14.7 7.3 56 4.6 NNW 4 6 2 3 1024.4 - 0.0
23/09:30am 13.6 12.9 8.6 72 2.7 N 2 2 1 1 1024.7 - 0.0
23/09:00am 10.0 8.5 7.0 81 1.5 NNE 4 6 2 3 1025.0 - 0.0
23/08:30am 7.4 6.0 5.3 86 1.0 WSW 2 6 1 3 1025.3 - 0.0
23/08:00am 5.9 4.7 4.4 90 0.7 CALM 0 4 0 2 1025.3 - 0.0
23/07:30am 3.3 1.3 2.3 93 0.4 NE 2 4 1 2 1025.2 - 0.0
23/07:00am 2.3 0.2 1.5 94 0.3 SSW 2 4 1 2 1025.0 - 0.0
23/06:30am 2.4 0.3 1.8 96 0.2 E 2 6 1 3 1024.8 - 0.0
23/06:00am 1.8 -0.4 1.1 95 0.3 NE 2 4 1 2 1024.7 - 0.0
23/05:30am 1.8 0.0 1.0 94 0.3 CALM 0 2 0 1 1024.6 - 0.0
23/05:00am 2.5 0.4 1.8 95 0.3 ENE 2 4 1 2 1024.5 - 0.0
23/04:30am 2.2 0.4 1.5 95 0.3 CALM 0 4 0 2 1024.7 - 0.0
23/04:00am 2.6 0.5 1.9 95 0.3 ENE 2 6 1 3 1024.7 - 0.0
23/03:30am 3.3 1.7 2.6 95 0.3 CALM 0 0 0 0 1024.9 - 0.0
23/03:00am 3.5 1.9 2.7 94 0.3 CALM 0 2 0 1 1025.0 - 0.0
23/02:30am 3.2 1.6 2.3 94 0.4 CALM 0 0 0 0 1025.4 - 0.0
23/02:00am 3.7 1.0 2.5 92 0.5 NNE 6 6 3 3 1025.6 - 0.0
23/01:30am 4.3 2.9 3.5 94 0.4 CALM 0 0 0 0 1025.7 - 0.0
23/01:00am 4.3 2.9 3.4 94 0.4 CALM 0 4 0 2 1025.8 - 0.0
23/12:30am 5.5 3.1 4.2 91 0.6 NE 6 6 3 3 1026.0 - 0.0
23/12:00am 5.2 3.5 4.2 93 0.5 NE 2 4 1 2 1026.1 - 0.0
 
Date/Time
EST
Temp
°C
App
Temp
°C
Dew
Point
°C
Rel
Hum
%
Delta-T
°C
Wind Press
QNH
hPa
Press
MSL
hPa
Rain since
9am
mm
Dir  Spd
km/h
Gust
km/h
Spd
kts
Gust
kts
22/11:30pm 5.6 3.6 4.6 93 0.5 SSW 4 4 2 2 1026.2 - 0.0
22/11:00pm 5.3 2.9 4.4 94 0.4 NE 6 6 3 3 1026.5 - 0.0
22/10:30pm 6.2 5.1 5.1 93 0.5 CALM 0 0 0 0 1026.6 - 0.0
22/10:00pm 6.4 5.3 5.1 91 0.6 CALM 0 2 0 1 1026.9 - 0.0
22/09:30pm 7.6 5.9 5.7 88 0.9 NNE 4 4 2 2 1026.9 - 0.0
22/09:00pm 8.1 6.0 5.8 85 1.1 NE 6 6 3 3 1027.0 - 0.0
22/08:30pm 8.0 6.6 5.5 84 1.2 N 2 4 1 2 1026.9 - 0.0
22/08:00pm 9.0 6.7 5.9 81 1.5 NNE 7 7 4 4 1026.7 - 0.0
22/07:30pm 10.4 8.1 5.7 72 2.3 NE 7 7 4 4 1026.7 - 0.0
22/07:00pm 12.0 10.8 6.6 69 2.7 S 2 4 1 2 1026.7 - 0.0
22/06:30pm 13.3 11.8 6.6 64 3.4 NE 4 6 2 3 1026.5 - 0.0
22/06:00pm 14.2 12.8 7.2 63 3.6 SW 4 9 2 5 1026.3 - 0.0
22/05:30pm 15.9 14.3 6.5 53 4.9 SW 4 6 2 3 1026.1 - 0.0
22/05:00pm 16.6 13.4 6.9 52 5.1 W 13 13 7 7 1025.8 - 0.0
22/04:30pm 18.8 16.0 6.9 46 6.3 W 11 13 6 7 1025.6 - 0.0
22/04:00pm 19.3 15.6 6.5 43 6.7 W 15 17 8 9 1025.4 - 0.0
22/03:30pm 19.7 15.8 5.2 38 7.5 W 15 17 8 9 1025.6 - 0.0
22/03:00pm 19.7 15.1 3.8 35 8.0 W 17 19 9 10 1025.7 - 0.0

Other formats

Comma delimited format used in spreadsheet applications
http://www.bom.gov.au/fwo/IDN60801/IDN60801.99765.axf

JavaScript Object Notation format (JSON) in row-major order
http://www.bom.gov.au/fwo/IDN60801/IDN60801.99765.json

Data quality

Most of these data are generated automatically and are frequently updated. Quality checks on data are not normally performed. It is possible for incorrect values to appear. Refer to information at About Latest Weather Observations and please check the disclaimer before using these data.